sensor_id;sensor_type;location;lat;lon;timestamp;temperature;humidity
65038;DHT22;51605;47.040;15.294;2023-08-24T00:01:28;24.80;62.70
65038;DHT22;51605;47.040;15.294;2023-08-24T00:03:54;24.80;62.70
65038;DHT22;51605;47.040;15.294;2023-08-24T00:06:19;24.80;62.70
65038;DHT22;51605;47.040;15.294;2023-08-24T00:08:45;24.80;62.70
65038;DHT22;51605;47.040;15.294;2023-08-24T00:11:11;24.80;62.80
65038;DHT22;51605;47.040;15.294;2023-08-24T00:13:44;24.80;62.80
65038;DHT22;51605;47.040;15.294;2023-08-24T00:16:15;24.80;62.80
65038;DHT22;51605;47.040;15.294;2023-08-24T00:18:41;24.80;62.80
65038;DHT22;51605;47.040;15.294;2023-08-24T00:21:07;24.80;62.90
65038;DHT22;51605;47.040;15.294;2023-08-24T00:23:33;24.80;62.80
65038;DHT22;51605;47.040;15.294;2023-08-24T00:25:59;24.80;62.60
65038;DHT22;51605;47.040;15.294;2023-08-24T00:28:25;24.80;62.70
65038;DHT22;51605;47.040;15.294;2023-08-24T00:30:51;24.80;62.70
65038;DHT22;51605;47.040;15.294;2023-08-24T00:33:17;24.80;62.70
65038;DHT22;51605;47.040;15.294;2023-08-24T00:35:43;24.80;62.80
65038;DHT22;51605;47.040;15.294;2023-08-24T00:38:08;24.80;62.70
65038;DHT22;51605;47.040;15.294;2023-08-24T00:40:34;24.80;62.80
65038;DHT22;51605;47.040;15.294;2023-08-24T00:43:00;24.80;62.80
65038;DHT22;51605;47.040;15.294;2023-08-24T00:45:26;24.80;62.70
65038;DHT22;51605;47.040;15.294;2023-08-24T00:47:52;24.80;62.70
65038;DHT22;51605;47.040;15.294;2023-08-24T00:50:18;24.80;62.60
65038;DHT22;51605;47.040;15.294;2023-08-24T00:52:44;24.80;62.60
65038;DHT22;51605;47.040;15.294;2023-08-24T00:55:10;24.80;62.60
65038;DHT22;51605;47.040;15.294;2023-08-24T00:57:37;24.80;63.50
65038;DHT22;51605;47.040;15.294;2023-08-24T01:00:06;24.80;62.60
65038;DHT22;51605;47.040;15.294;2023-08-24T01:02:33;24.80;62.70
65038;DHT22;51605;47.040;15.294;2023-08-24T01:04:59;24.80;62.70
65038;DHT22;51605;47.040;15.294;2023-08-24T01:07:25;24.80;62.60
65038;DHT22;51605;47.040;15.294;2023-08-24T01:09:51;24.80;62.60
65038;DHT22;51605;47.040;15.294;2023-08-24T01:13:08;24.80;62.60
65038;DHT22;51605;47.040;15.294;2023-08-24T01:15:29;24.80;62.70
65038;DHT22;51605;47.040;15.294;2023-08-24T01:18:03;24.80;62.60
65038;DHT22;51605;47.040;15.294;2023-08-24T01:20:30;24.80;62.60
65038;DHT22;51605;47.040;15.294;2023-08-24T01:25:52;24.80;62.80
65038;DHT22;51605;47.040;15.294;2023-08-24T01:28:19;24.80;62.60
65038;DHT22;51605;47.040;15.294;2023-08-24T01:30:46;24.80;62.70
65038;DHT22;51605;47.040;15.294;2023-08-24T01:33:13;24.80;62.60
65038;DHT22;51605;47.040;15.294;2023-08-24T01:35:39;24.80;62.70
65038;DHT22;51605;47.040;15.294;2023-08-24T01:38:05;24.80;62.70
65038;DHT22;51605;47.040;15.294;2023-08-24T01:43:04;24.80;62.70
65038;DHT22;51605;47.040;15.294;2023-08-24T01:45:32;24.80;62.70
65038;DHT22;51605;47.040;15.294;2023-08-24T01:48:02;24.80;62.60
65038;DHT22;51605;47.040;15.294;2023-08-24T01:50:29;24.80;62.70
65038;DHT22;51605;47.040;15.294;2023-08-24T01:52:55;24.80;62.70
65038;DHT22;51605;47.040;15.294;2023-08-24T01:55:21;24.80;62.70
65038;DHT22;51605;47.040;15.294;2023-08-24T01:57:48;24.80;62.70
65038;DHT22;51605;47.040;15.294;2023-08-24T02:00:14;24.80;62.70
65038;DHT22;51605;47.040;15.294;2023-08-24T02:02:39;24.80;62.70
65038;DHT22;51605;47.040;15.294;2023-08-24T02:05:05;24.80;62.70
65038;DHT22;51605;47.040;15.294;2023-08-24T02:07:31;24.80;62.70
65038;DHT22;51605;47.040;15.294;2023-08-24T02:09:57;24.80;62.60
65038;DHT22;51605;47.040;15.294;2023-08-24T02:12:22;24.80;62.60
65038;DHT22;51605;47.040;15.294;2023-08-24T02:14:48;24.80;62.60
65038;DHT22;51605;47.040;15.294;2023-08-24T02:17:13;24.80;62.60
65038;DHT22;51605;47.040;15.294;2023-08-24T02:19:39;24.80;62.60
65038;DHT22;51605;47.040;15.294;2023-08-24T02:22:07;24.80;62.60
65038;DHT22;51605;47.040;15.294;2023-08-24T02:24:32;24.80;62.60
65038;DHT22;51605;47.040;15.294;2023-08-24T02:26:59;24.80;62.70
65038;DHT22;51605;47.040;15.294;2023-08-24T02:29:24;24.80;62.70
65038;DHT22;51605;47.040;15.294;2023-08-24T02:31:50;24.80;62.60
65038;DHT22;51605;47.040;15.294;2023-08-24T02:34:17;24.80;62.60
65038;DHT22;51605;47.040;15.294;2023-08-24T02:36:43;24.80;62.60
65038;DHT22;51605;47.040;15.294;2023-08-24T02:39:08;24.80;62.60
65038;DHT22;51605;47.040;15.294;2023-08-24T02:41:34;24.80;62.60
65038;DHT22;51605;47.040;15.294;2023-08-24T02:44:01;24.80;62.60
65038;DHT22;51605;47.040;15.294;2023-08-24T02:46:26;24.80;62.60
65038;DHT22;51605;47.040;15.294;2023-08-24T02:48:52;24.80;62.60
65038;DHT22;51605;47.040;15.294;2023-08-24T02:51:20;24.80;62.60
65038;DHT22;51605;47.040;15.294;2023-08-24T02:53:46;24.80;62.70
65038;DHT22;51605;47.040;15.294;2023-08-24T02:56:11;24.80;62.60
65038;DHT22;51605;47.040;15.294;2023-08-24T02:58:37;24.80;62.60
65038;DHT22;51605;47.040;15.294;2023-08-24T03:01:06;24.80;62.60
65038;DHT22;51605;47.040;15.294;2023-08-24T03:03:35;24.80;62.70
65038;DHT22;51605;47.040;15.294;2023-08-24T03:06:03;24.80;62.60
65038;DHT22;51605;47.040;15.294;2023-08-24T03:08:30;24.80;62.60
65038;DHT22;51605;47.040;15.294;2023-08-24T03:10:56;24.80;62.60
65038;DHT22;51605;47.040;15.294;2023-08-24T03:13:22;24.80;62.60
65038;DHT22;51605;47.040;15.294;2023-08-24T03:15:48;24.80;62.60
65038;DHT22;51605;47.040;15.294;2023-08-24T03:18:15;24.80;62.60
65038;DHT22;51605;47.040;15.294;2023-08-24T03:20:41;24.80;62.60
65038;DHT22;51605;47.040;15.294;2023-08-24T03:23:07;24.80;62.60
65038;DHT22;51605;47.040;15.294;2023-08-24T03:25:36;24.80;62.60
65038;DHT22;51605;47.040;15.294;2023-08-24T03:28:03;24.80;62.60
65038;DHT22;51605;47.040;15.294;2023-08-24T03:30:29;24.80;62.60
65038;DHT22;51605;47.040;15.294;2023-08-24T03:32:55;24.80;62.70
65038;DHT22;51605;47.040;15.294;2023-08-24T03:35:20;24.80;62.50
65038;DHT22;51605;47.040;15.294;2023-08-24T03:37:46;24.80;62.60
65038;DHT22;51605;47.040;15.294;2023-08-24T03:40:12;24.90;62.60
65038;DHT22;51605;47.040;15.294;2023-08-24T03:42:38;24.80;62.50
65038;DHT22;51605;47.040;15.294;2023-08-24T03:45:05;24.80;62.60
65038;DHT22;51605;47.040;15.294;2023-08-24T03:47:31;24.80;62.50
65038;DHT22;51605;47.040;15.294;2023-08-24T03:49:56;24.80;62.50
65038;DHT22;51605;47.040;15.294;2023-08-24T03:52:22;24.80;62.60
65038;DHT22;51605;47.040;15.294;2023-08-24T03:54:47;24.80;62.60
65038;DHT22;51605;47.040;15.294;2023-08-24T03:57:14;24.80;62.60
65038;DHT22;51605;47.040;15.294;2023-08-24T03:59:40;24.80;62.60
65038;DHT22;51605;47.040;15.294;2023-08-24T04:02:06;24.80;62.50
65038;DHT22;51605;47.040;15.294;2023-08-24T04:04:32;24.80;62.70
65038;DHT22;51605;47.040;15.294;2023-08-24T04:06:57;24.80;62.60
65038;DHT22;51605;47.040;15.294;2023-08-24T04:09:23;24.80;62.60
65038;DHT22;51605;47.040;15.294;2023-08-24T04:11:49;24.80;62.60
65038;DHT22;51605;47.040;15.294;2023-08-24T04:14:15;24.80;62.50
65038;DHT22;51605;47.040;15.294;2023-08-24T04:16:40;24.80;62.50
65038;DHT22;51605;47.040;15.294;2023-08-24T04:19:07;24.80;62.50
65038;DHT22;51605;47.040;15.294;2023-08-24T04:21:33;24.80;62.50
65038;DHT22;51605;47.040;15.294;2023-08-24T04:23:59;24.80;62.50
65038;DHT22;51605;47.040;15.294;2023-08-24T04:26:24;24.80;62.50
65038;DHT22;51605;47.040;15.294;2023-08-24T04:28:50;24.80;62.60
65038;DHT22;51605;47.040;15.294;2023-08-24T04:31:16;24.80;62.60
65038;DHT22;51605;47.040;15.294;2023-08-24T04:33:42;24.80;62.60
65038;DHT22;51605;47.040;15.294;2023-08-24T04:36:08;24.80;62.50
65038;DHT22;51605;47.040;15.294;2023-08-24T04:38:34;24.80;62.50
65038;DHT22;51605;47.040;15.294;2023-08-24T04:40:59;24.80;62.50
65038;DHT22;51605;47.040;15.294;2023-08-24T04:43:25;24.80;62.60
65038;DHT22;51605;47.040;15.294;2023-08-24T04:45:53;24.80;62.50
65038;DHT22;51605;47.040;15.294;2023-08-24T04:48:19;24.80;62.50
65038;DHT22;51605;47.040;15.294;2023-08-24T04:50:46;24.80;62.50
65038;DHT22;51605;47.040;15.294;2023-08-24T04:53:14;24.80;62.50
65038;DHT22;51605;47.040;15.294;2023-08-24T04:55:40;24.80;62.60
65038;DHT22;51605;47.040;15.294;2023-08-24T04:58:07;24.90;62.60
65038;DHT22;51605;47.040;15.294;2023-08-24T05:00:33;24.80;62.60
65038;DHT22;51605;47.040;15.294;2023-08-24T05:03:01;24.80;62.60
65038;DHT22;51605;47.040;15.294;2023-08-24T05:05:29;24.80;62.60
65038;DHT22;51605;47.040;15.294;2023-08-24T05:07:55;24.80;62.60
65038;DHT22;51605;47.040;15.294;2023-08-24T05:10:21;24.80;62.60
65038;DHT22;51605;47.040;15.294;2023-08-24T05:12:47;24.80;62.70
65038;DHT22;51605;47.040;15.294;2023-08-24T05:15:12;24.80;62.60
65038;DHT22;51605;47.040;15.294;2023-08-24T05:17:39;24.80;62.60
65038;DHT22;51605;47.040;15.294;2023-08-24T05:20:06;24.80;62.60
65038;DHT22;51605;47.040;15.294;2023-08-24T05:22:33;24.80;62.60
65038;DHT22;51605;47.040;15.294;2023-08-24T05:24:59;24.80;62.60
65038;DHT22;51605;47.040;15.294;2023-08-24T05:27:25;24.80;62.60
65038;DHT22;51605;47.040;15.294;2023-08-24T05:29:51;24.80;62.60
65038;DHT22;51605;47.040;15.294;2023-08-24T05:32:16;24.80;62.60
65038;DHT22;51605;47.040;15.294;2023-08-24T05:34:43;24.80;62.70
65038;DHT22;51605;47.040;15.294;2023-08-24T05:37:10;24.80;62.60
65038;DHT22;51605;47.040;15.294;2023-08-24T05:39:35;24.80;62.70
65038;DHT22;51605;47.040;15.294;2023-08-24T05:42:01;24.80;62.60
65038;DHT22;51605;47.040;15.294;2023-08-24T05:44:27;24.80;62.50
65038;DHT22;51605;47.040;15.294;2023-08-24T05:46:52;24.80;62.60
65038;DHT22;51605;47.040;15.294;2023-08-24T05:49:18;24.80;62.60
65038;DHT22;51605;47.040;15.294;2023-08-24T05:51:43;24.80;62.60
65038;DHT22;51605;47.040;15.294;2023-08-24T05:54:09;24.80;62.60
65038;DHT22;51605;47.040;15.294;2023-08-24T05:56:35;24.80;62.50
65038;DHT22;51605;47.040;15.294;2023-08-24T05:59:00;24.80;62.50
65038;DHT22;51605;47.040;15.294;2023-08-24T06:01:26;24.80;62.50
65038;DHT22;51605;47.040;15.294;2023-08-24T06:03:52;24.80;62.60
65038;DHT22;51605;47.040;15.294;2023-08-24T06:06:17;24.80;62.60
65038;DHT22;51605;47.040;15.294;2023-08-24T06:08:43;24.80;62.70
65038;DHT22;51605;47.040;15.294;2023-08-24T06:11:09;24.80;62.70
65038;DHT22;51605;47.040;15.294;2023-08-24T06:13:35;24.80;62.60
65038;DHT22;51605;47.040;15.294;2023-08-24T06:16:01;24.80;62.50
65038;DHT22;51605;47.040;15.294;2023-08-24T06:18:27;24.90;62.60
65038;DHT22;51605;47.040;15.294;2023-08-24T06:20:53;24.80;62.50
65038;DHT22;51605;47.040;15.294;2023-08-24T06:23:19;24.80;62.50
65038;DHT22;51605;47.040;15.294;2023-08-24T06:25:45;24.80;62.50
65038;DHT22;51605;47.040;15.294;2023-08-24T06:28:11;24.80;62.50
65038;DHT22;51605;47.040;15.294;2023-08-24T06:30:41;24.80;62.50
65038;DHT22;51605;47.040;15.294;2023-08-24T06:33:08;24.80;62.50
65038;DHT22;51605;47.040;15.294;2023-08-24T06:35:36;24.80;62.50
65038;DHT22;51605;47.040;15.294;2023-08-24T06:38:03;24.80;62.60
65038;DHT22;51605;47.040;15.294;2023-08-24T06:40:29;24.80;62.60
65038;DHT22;51605;47.040;15.294;2023-08-24T06:42:56;24.80;62.70
65038;DHT22;51605;47.040;15.294;2023-08-24T06:45:22;24.80;62.60
65038;DHT22;51605;47.040;15.294;2023-08-24T06:47:47;24.80;62.60
65038;DHT22;51605;47.040;15.294;2023-08-24T06:50:14;24.80;62.70
65038;DHT22;51605;47.040;15.294;2023-08-24T06:52:40;24.80;62.60
65038;DHT22;51605;47.040;15.294;2023-08-24T06:55:08;24.80;62.60
65038;DHT22;51605;47.040;15.294;2023-08-24T06:57:34;24.80;62.60
65038;DHT22;51605;47.040;15.294;2023-08-24T06:59:59;24.80;62.60
65038;DHT22;51605;47.040;15.294;2023-08-24T07:02:25;24.80;62.60
65038;DHT22;51605;47.040;15.294;2023-08-24T07:04:51;24.80;62.60
65038;DHT22;51605;47.040;15.294;2023-08-24T07:07:16;24.80;62.60
65038;DHT22;51605;47.040;15.294;2023-08-24T07:09:42;24.80;62.60
65038;DHT22;51605;47.040;15.294;2023-08-24T07:12:09;24.80;62.50
65038;DHT22;51605;47.040;15.294;2023-08-24T07:14:36;24.80;62.60
65038;DHT22;51605;47.040;15.294;2023-08-24T07:17:02;24.90;62.60
65038;DHT22;51605;47.040;15.294;2023-08-24T07:19:27;24.80;62.50
65038;DHT22;51605;47.040;15.294;2023-08-24T07:21:53;24.80;62.60
65038;DHT22;51605;47.040;15.294;2023-08-24T07:24:19;24.80;62.60
65038;DHT22;51605;47.040;15.294;2023-08-24T07:26:46;24.90;62.60
65038;DHT22;51605;47.040;15.294;2023-08-24T07:29:11;24.80;62.60
65038;DHT22;51605;47.040;15.294;2023-08-24T07:31:37;24.90;62.50
65038;DHT22;51605;47.040;15.294;2023-08-24T07:34:03;24.80;62.50
65038;DHT22;51605;47.040;15.294;2023-08-24T07:36:30;24.80;62.60
65038;DHT22;51605;47.040;15.294;2023-08-24T07:38:55;24.80;62.70
65038;DHT22;51605;47.040;15.294;2023-08-24T07:41:21;24.80;62.70
65038;DHT22;51605;47.040;15.294;2023-08-24T07:43:47;24.80;62.80
65038;DHT22;51605;47.040;15.294;2023-08-24T07:46:13;24.80;62.70
65038;DHT22;51605;47.040;15.294;2023-08-24T07:48:39;24.90;62.70
65038;DHT22;51605;47.040;15.294;2023-08-24T07:51:05;24.90;62.70
65038;DHT22;51605;47.040;15.294;2023-08-24T07:53:31;24.90;62.70
65038;DHT22;51605;47.040;15.294;2023-08-24T07:55:58;24.80;62.70
65038;DHT22;51605;47.040;15.294;2023-08-24T07:58:24;24.80;62.70
65038;DHT22;51605;47.040;15.294;2023-08-24T08:00:50;24.80;62.70
65038;DHT22;51605;47.040;15.294;2023-08-24T08:03:19;24.80;62.70
65038;DHT22;51605;47.040;15.294;2023-08-24T08:05:46;24.80;62.70
65038;DHT22;51605;47.040;15.294;2023-08-24T08:08:15;24.80;62.70
65038;DHT22;51605;47.040;15.294;2023-08-24T08:10:42;24.80;62.70
65038;DHT22;51605;47.040;15.294;2023-08-24T08:13:09;24.90;62.80
65038;DHT22;51605;47.040;15.294;2023-08-24T08:15:38;24.80;62.80
65038;DHT22;51605;47.040;15.294;2023-08-24T08:18:05;24.90;62.80
65038;DHT22;51605;47.040;15.294;2023-08-24T08:20:31;24.80;62.70
65038;DHT22;51605;47.040;15.294;2023-08-24T08:22:58;24.80;62.80
65038;DHT22;51605;47.040;15.294;2023-08-24T08:25:24;24.80;62.80
65038;DHT22;51605;47.040;15.294;2023-08-24T08:27:49;24.80;62.70
65038;DHT22;51605;47.040;15.294;2023-08-24T08:30:15;24.90;62.70
65038;DHT22;51605;47.040;15.294;2023-08-24T08:32:41;24.90;62.70
65038;DHT22;51605;47.040;15.294;2023-08-24T08:35:08;24.90;62.70
65038;DHT22;51605;47.040;15.294;2023-08-24T08:37:34;24.90;62.70
65038;DHT22;51605;47.040;15.294;2023-08-24T08:39:59;24.90;62.70
65038;DHT22;51605;47.040;15.294;2023-08-24T08:42:25;24.90;62.50
65038;DHT22;51605;47.040;15.294;2023-08-24T08:44:51;24.90;62.60
65038;DHT22;51605;47.040;15.294;2023-08-24T08:47:20;24.90;62.60
65038;DHT22;51605;47.040;15.294;2023-08-24T08:49:48;24.90;62.70
65038;DHT22;51605;47.040;15.294;2023-08-24T08:52:14;24.80;62.70
65038;DHT22;51605;47.040;15.294;2023-08-24T08:54:39;24.90;62.70
65038;DHT22;51605;47.040;15.294;2023-08-24T08:57:06;24.80;62.70
65038;DHT22;51605;47.040;15.294;2023-08-24T08:59:32;24.80;62.70
65038;DHT22;51605;47.040;15.294;2023-08-24T09:02:00;24.80;62.70
65038;DHT22;51605;47.040;15.294;2023-08-24T09:04:27;24.80;62.70
65038;DHT22;51605;47.040;15.294;2023-08-24T09:06:55;24.80;62.70
65038;DHT22;51605;47.040;15.294;2023-08-24T09:09:21;24.80;62.80
65038;DHT22;51605;47.040;15.294;2023-08-24T09:11:48;24.90;62.70
65038;DHT22;51605;47.040;15.294;2023-08-24T09:14:14;24.90;62.70
65038;DHT22;51605;47.040;15.294;2023-08-24T09:16:41;24.80;62.60
65038;DHT22;51605;47.040;15.294;2023-08-24T09:19:11;24.80;62.70
65038;DHT22;51605;47.040;15.294;2023-08-24T09:21:39;24.80;62.70
65038;DHT22;51605;47.040;15.294;2023-08-24T09:24:07;24.80;62.60
65038;DHT22;51605;47.040;15.294;2023-08-24T09:26:37;24.90;62.70
65038;DHT22;51605;47.040;15.294;2023-08-24T09:29:12;24.80;62.70
65038;DHT22;51605;47.040;15.294;2023-08-24T09:31:41;24.80;62.60
65038;DHT22;51605;47.040;15.294;2023-08-24T09:34:10;24.80;62.70
65038;DHT22;51605;47.040;15.294;2023-08-24T09:36:37;24.80;62.70
65038;DHT22;51605;47.040;15.294;2023-08-24T09:39:03;24.80;62.80
65038;DHT22;51605;47.040;15.294;2023-08-24T09:41:43;24.80;62.70
65038;DHT22;51605;47.040;15.294;2023-08-24T09:44:09;24.80;62.80
65038;DHT22;51605;47.040;15.294;2023-08-24T09:46:35;24.90;62.70
65038;DHT22;51605;47.040;15.294;2023-08-24T09:49:05;24.80;62.70
65038;DHT22;51605;47.040;15.294;2023-08-24T09:51:35;24.80;62.80
65038;DHT22;51605;47.040;15.294;2023-08-24T09:54:11;24.80;62.70
65038;DHT22;51605;47.040;15.294;2023-08-24T09:56:39;24.80;62.70
65038;DHT22;51605;47.040;15.294;2023-08-24T09:59:15;24.90;62.80
65038;DHT22;51605;47.040;15.294;2023-08-24T10:01:48;24.80;62.80
65038;DHT22;51605;47.040;15.294;2023-08-24T10:04:24;24.80;62.90
65038;DHT22;51605;47.040;15.294;2023-08-24T10:06:55;24.80;62.90
65038;DHT22;51605;47.040;15.294;2023-08-24T10:09:52;24.80;63.60
65038;DHT22;51605;47.040;15.294;2023-08-24T10:12:20;24.80;64.10
65038;DHT22;51605;47.040;15.294;2023-08-24T10:14:56;24.80;64.40
65038;DHT22;51605;47.040;15.294;2023-08-24T10:17:24;24.90;65.00
65038;DHT22;51605;47.040;15.294;2023-08-24T10:19:51;24.90;65.10
65038;DHT22;51605;47.040;15.294;2023-08-24T10:22:19;25.00;65.50
65038;DHT22;51605;47.040;15.294;2023-08-24T10:24:47;25.10;65.60
65038;DHT22;51605;47.040;15.294;2023-08-24T10:27:14;25.20;65.80
65038;DHT22;51605;47.040;15.294;2023-08-24T10:29:40;25.30;65.80
65038;DHT22;51605;47.040;15.294;2023-08-24T10:32:06;25.30;65.70
65038;DHT22;51605;47.040;15.294;2023-08-24T10:34:32;25.40;65.50
65038;DHT22;51605;47.040;15.294;2023-08-24T10:37:10;25.50;65.30
65038;DHT22;51605;47.040;15.294;2023-08-24T10:39:43;25.50;65.10
65038;DHT22;51605;47.040;15.294;2023-08-24T10:42:13;25.60;65.00
65038;DHT22;51605;47.040;15.294;2023-08-24T10:44:45;25.60;64.80
65038;DHT22;51605;47.040;15.294;2023-08-24T10:47:18;25.60;64.70
65038;DHT22;51605;47.040;15.294;2023-08-24T10:52:25;25.60;64.60
65038;DHT22;51605;47.040;15.294;2023-08-24T10:54:52;25.60;64.70
65038;DHT22;51605;47.040;15.294;2023-08-24T10:57:26;25.50;64.60
65038;DHT22;51605;47.040;15.294;2023-08-24T11:00:04;25.40;64.60
65038;DHT22;51605;47.040;15.294;2023-08-24T11:02:46;25.40;64.60
65038;DHT22;51605;47.040;15.294;2023-08-24T11:05:29;25.30;64.60
65038;DHT22;51605;47.040;15.294;2023-08-24T11:08:04;25.30;64.60
65038;DHT22;51605;47.040;15.294;2023-08-24T11:10:46;25.30;64.70
65038;DHT22;51605;47.040;15.294;2023-08-24T11:13:16;25.20;64.70
65038;DHT22;51605;47.040;15.294;2023-08-24T11:15:46;25.20;64.60
65038;DHT22;51605;47.040;15.294;2023-08-24T11:20:45;25.20;64.70
65038;DHT22;51605;47.040;15.294;2023-08-24T11:23:10;25.10;64.60
65038;DHT22;51605;47.040;15.294;2023-08-24T11:25:36;25.10;64.60
65038;DHT22;51605;47.040;15.294;2023-08-24T11:28:05;25.20;64.50
65038;DHT22;51605;47.040;15.294;2023-08-24T11:30:32;25.10;64.50
65038;DHT22;51605;47.040;15.294;2023-08-24T11:33:01;25.10;64.50
65038;DHT22;51605;47.040;15.294;2023-08-24T11:35:28;25.10;64.50
65038;DHT22;51605;47.040;15.294;2023-08-24T11:37:57;25.10;64.60
65038;DHT22;51605;47.040;15.294;2023-08-24T11:40:23;25.10;64.60
65038;DHT22;51605;47.040;15.294;2023-08-24T11:42:58;25.10;64.60
65038;DHT22;51605;47.040;15.294;2023-08-24T11:45:30;25.00;64.50
65038;DHT22;51605;47.040;15.294;2023-08-24T11:47:57;25.00;64.50
65038;DHT22;51605;47.040;15.294;2023-08-24T11:50:23;25.00;64.50
65038;DHT22;51605;47.040;15.294;2023-08-24T11:52:49;25.00;64.50
65038;DHT22;51605;47.040;15.294;2023-08-24T11:55:14;25.00;64.50
65038;DHT22;51605;47.040;15.294;2023-08-24T11:57:41;25.00;64.50
65038;DHT22;51605;47.040;15.294;2023-08-24T12:00:08;25.10;64.50
65038;DHT22;51605;47.040;15.294;2023-08-24T12:02:34;25.00;64.40
65038;DHT22;51605;47.040;15.294;2023-08-24T12:05:01;25.00;64.50
65038;DHT22;51605;47.040;15.294;2023-08-24T12:07:31;25.00;64.40
65038;DHT22;51605;47.040;15.294;2023-08-24T12:10:00;25.00;64.40
65038;DHT22;51605;47.040;15.294;2023-08-24T12:12:27;25.00;64.40
65038;DHT22;51605;47.040;15.294;2023-08-24T12:14:53;25.00;64.40
65038;DHT22;51605;47.040;15.294;2023-08-24T12:17:18;25.00;64.30
65038;DHT22;51605;47.040;15.294;2023-08-24T12:19:45;25.00;64.30
65038;DHT22;51605;47.040;15.294;2023-08-24T12:22:15;25.00;64.30
65038;DHT22;51605;47.040;15.294;2023-08-24T12:24:45;25.00;64.40
65038;DHT22;51605;47.040;15.294;2023-08-24T12:27:22;25.00;64.30
65038;DHT22;51605;47.040;15.294;2023-08-24T12:29:47;25.00;64.30
65038;DHT22;51605;47.040;15.294;2023-08-24T12:32:14;25.00;64.20
65038;DHT22;51605;47.040;15.294;2023-08-24T12:34:41;25.00;64.30
65038;DHT22;51605;47.040;15.294;2023-08-24T12:37:08;25.00;64.30
65038;DHT22;51605;47.040;15.294;2023-08-24T12:39:37;24.90;64.30
65038;DHT22;51605;47.040;15.294;2023-08-24T12:42:03;24.90;63.80
65038;DHT22;51605;47.040;15.294;2023-08-24T12:44:29;24.80;63.30
65038;DHT22;51605;47.040;15.294;2023-08-24T12:46:55;24.70;63.00
65038;DHT22;51605;47.040;15.294;2023-08-24T12:49:20;24.60;62.80
65038;DHT22;51605;47.040;15.294;2023-08-24T12:51:46;24.60;62.70
65038;DHT22;51605;47.040;15.294;2023-08-24T12:54:13;24.50;62.30
65038;DHT22;51605;47.040;15.294;2023-08-24T12:56:39;24.60;62.00
65038;DHT22;51605;47.040;15.294;2023-08-24T12:59:08;24.60;61.80
65038;DHT22;51605;47.040;15.294;2023-08-24T13:01:34;24.60;61.60
65038;DHT22;51605;47.040;15.294;2023-08-24T13:04:00;24.60;61.40
65038;DHT22;51605;47.040;15.294;2023-08-24T13:06:26;24.60;61.20
65038;DHT22;51605;47.040;15.294;2023-08-24T13:08:53;24.60;60.90
65038;DHT22;51605;47.040;15.294;2023-08-24T13:11:19;24.60;60.70
65038;DHT22;51605;47.040;15.294;2023-08-24T13:13:44;24.70;60.70
65038;DHT22;51605;47.040;15.294;2023-08-24T13:16:13;24.60;60.50
65038;DHT22;51605;47.040;15.294;2023-08-24T13:18:39;24.70;60.30
65038;DHT22;51605;47.040;15.294;2023-08-24T13:21:05;24.70;60.30
65038;DHT22;51605;47.040;15.294;2023-08-24T13:23:31;24.70;60.00
65038;DHT22;51605;47.040;15.294;2023-08-24T13:25:59;24.70;59.80
65038;DHT22;51605;47.040;15.294;2023-08-24T13:28:25;24.70;59.50
65038;DHT22;51605;47.040;15.294;2023-08-24T13:30:51;24.70;59.50
65038;DHT22;51605;47.040;15.294;2023-08-24T13:33:17;24.70;59.40
65038;DHT22;51605;47.040;15.294;2023-08-24T13:35:45;24.70;59.20
65038;DHT22;51605;47.040;15.294;2023-08-24T13:38:10;24.70;59.10
65038;DHT22;51605;47.040;15.294;2023-08-24T13:40:36;24.80;59.10
65038;DHT22;51605;47.040;15.294;2023-08-24T13:43:01;24.80;58.90
65038;DHT22;51605;47.040;15.294;2023-08-24T13:45:27;24.70;58.80
65038;DHT22;51605;47.040;15.294;2023-08-24T13:47:56;24.80;58.70
65038;DHT22;51605;47.040;15.294;2023-08-24T13:50:21;24.80;59.00
65038;DHT22;51605;47.040;15.294;2023-08-24T13:52:47;24.80;58.50
65038;DHT22;51605;47.040;15.294;2023-08-24T13:55:12;24.80;58.30
65038;DHT22;51605;47.040;15.294;2023-08-24T13:57:38;24.80;58.30
65038;DHT22;51605;47.040;15.294;2023-08-24T14:00:04;24.80;58.20
65038;DHT22;51605;47.040;15.294;2023-08-24T14:02:33;24.80;58.00
65038;DHT22;51605;47.040;15.294;2023-08-24T14:04:58;24.80;58.00
65038;DHT22;51605;47.040;15.294;2023-08-24T14:07:24;24.80;57.90
65038;DHT22;51605;47.040;15.294;2023-08-24T14:09:49;24.80;57.80
65038;DHT22;51605;47.040;15.294;2023-08-24T14:12:15;24.80;57.70
65038;DHT22;51605;47.040;15.294;2023-08-24T14:14:41;24.80;57.60
65038;DHT22;51605;47.040;15.294;2023-08-24T14:17:07;24.80;57.50
65038;DHT22;51605;47.040;15.294;2023-08-24T14:19:32;24.80;57.40
65038;DHT22;51605;47.040;15.294;2023-08-24T14:21:58;24.80;57.30
65038;DHT22;51605;47.040;15.294;2023-08-24T14:24:23;24.80;58.20
65038;DHT22;51605;47.040;15.294;2023-08-24T14:26:49;24.80;57.20
65038;DHT22;51605;47.040;15.294;2023-08-24T14:29:15;24.80;57.10
65038;DHT22;51605;47.040;15.294;2023-08-24T14:31:41;24.80;57.00
65038;DHT22;51605;47.040;15.294;2023-08-24T14:34:06;24.80;57.00
65038;DHT22;51605;47.040;15.294;2023-08-24T14:36:32;24.90;56.90
65038;DHT22;51605;47.040;15.294;2023-08-24T14:38:58;24.90;56.90
65038;DHT22;51605;47.040;15.294;2023-08-24T14:41:23;24.90;57.30
65038;DHT22;51605;47.040;15.294;2023-08-24T14:43:49;24.90;58.10
65038;DHT22;51605;47.040;15.294;2023-08-24T14:46:15;24.90;58.50
65038;DHT22;51605;47.040;15.294;2023-08-24T14:48:40;24.80;57.80
65038;DHT22;51605;47.040;15.294;2023-08-24T14:51:06;24.80;57.60
65038;DHT22;51605;47.040;15.294;2023-08-24T14:53:32;24.80;57.50
65038;DHT22;51605;47.040;15.294;2023-08-24T14:55:58;24.80;57.70
65038;DHT22;51605;47.040;15.294;2023-08-24T14:58:25;24.80;57.20
65038;DHT22;51605;47.040;15.294;2023-08-24T15:00:52;24.80;57.00
65038;DHT22;51605;47.040;15.294;2023-08-24T15:03:18;24.80;56.90
65038;DHT22;51605;47.040;15.294;2023-08-24T15:05:45;24.80;56.70
65038;DHT22;51605;47.040;15.294;2023-08-24T15:08:12;24.80;56.70
65038;DHT22;51605;47.040;15.294;2023-08-24T15:10:38;24.80;56.60
65038;DHT22;51605;47.040;15.294;2023-08-24T15:13:04;24.80;56.50
65038;DHT22;51605;47.040;15.294;2023-08-24T15:15:30;24.80;56.40
65038;DHT22;51605;47.040;15.294;2023-08-24T15:17:56;24.80;56.30
65038;DHT22;51605;47.040;15.294;2023-08-24T15:20:21;24.80;56.20
65038;DHT22;51605;47.040;15.294;2023-08-24T15:22:48;24.80;56.20
65038;DHT22;51605;47.040;15.294;2023-08-24T15:25:14;24.80;56.00